sensor_id;sensor_type;location;lat;lon;timestamp;P1;durP1;ratioP1;P2;durP2;ratioP2
71435;SDS011;59251;51.326;12.370;2023-04-06T00:01:06;12.73;;;4.00;;
71435;SDS011;59251;51.326;12.370;2023-04-06T00:03:32;10.73;;;4.13;;
71435;SDS011;59251;51.326;12.370;2023-04-06T00:05:57;10.33;;;4.53;;
71435;SDS011;59251;51.326;12.370;2023-04-06T00:08:22;9.37;;;3.80;;
71435;SDS011;59251;51.326;12.370;2023-04-06T00:10:48;9.65;;;3.97;;
71435;SDS011;59251;51.326;12.370;2023-04-06T00:13:14;16.37;;;4.00;;
71435;SDS011;59251;51.326;12.370;2023-04-06T00:15:39;11.77;;;4.57;;
71435;SDS011;59251;51.326;12.370;2023-04-06T00:18:05;8.90;;;4.13;;
71435;SDS011;59251;51.326;12.370;2023-04-06T00:20:30;8.98;;;3.70;;
71435;SDS011;59251;51.326;12.370;2023-04-06T00:22:56;9.00;;;4.10;;
71435;SDS011;59251;51.326;12.370;2023-04-06T00:25:21;11.37;;;4.17;;
71435;SDS011;59251;51.326;12.370;2023-04-06T00:27:47;11.43;;;4.05;;
71435;SDS011;59251;51.326;12.370;2023-04-06T00:30:12;9.10;;;3.70;;
71435;SDS011;59251;51.326;12.370;2023-04-06T00:32:38;10.63;;;4.00;;
71435;SDS011;59251;51.326;12.370;2023-04-06T00:35:04;13.55;;;4.10;;
71435;SDS011;59251;51.326;12.370;2023-04-06T00:37:29;8.57;;;3.80;;
71435;SDS011;59251;51.326;12.370;2023-04-06T00:39:55;9.13;;;3.93;;
71435;SDS011;59251;51.326;12.370;2023-04-06T00:42:20;10.68;;;3.80;;
71435;SDS011;59251;51.326;12.370;2023-04-06T00:45:00;10.37;;;4.10;;
71435;SDS011;59251;51.326;12.370;2023-04-06T00:47:26;10.55;;;4.15;;
71435;SDS011;59251;51.326;12.370;2023-04-06T00:49:52;9.63;;;3.67;;
71435;SDS011;59251;51.326;12.370;2023-04-06T00:52:18;10.07;;;4.47;;
71435;SDS011;59251;51.326;12.370;2023-04-06T00:54:44;9.48;;;3.83;;
71435;SDS011;59251;51.326;12.370;2023-04-06T00:57:13;9.13;;;3.87;;
71435;SDS011;59251;51.326;12.370;2023-04-06T00:59:38;11.45;;;4.22;;
71435;SDS011;59251;51.326;12.370;2023-04-06T01:02:05;9.65;;;4.07;;
71435;SDS011;59251;51.326;12.370;2023-04-06T01:04:31;10.07;;;3.93;;
71435;SDS011;59251;51.326;12.370;2023-04-06T01:06:56;9.13;;;3.60;;
71435;SDS011;59251;51.326;12.370;2023-04-06T01:09:22;10.80;;;3.67;;
71435;SDS011;59251;51.326;12.370;2023-04-06T01:11:47;10.00;;;4.00;;
71435;SDS011;59251;51.326;12.370;2023-04-06T01:14:12;9.50;;;3.70;;
71435;SDS011;59251;51.326;12.370;2023-04-06T01:16:40;10.38;;;3.97;;
71435;SDS011;59251;51.326;12.370;2023-04-06T01:19:09;10.32;;;3.78;;
71435;SDS011;59251;51.326;12.370;2023-04-06T01:21:38;10.40;;;4.32;;
71435;SDS011;59251;51.326;12.370;2023-04-06T01:24:04;11.70;;;5.15;;
71435;SDS011;59251;51.326;12.370;2023-04-06T01:26:31;9.43;;;4.17;;
71435;SDS011;59251;51.326;12.370;2023-04-06T01:28:57;8.98;;;4.18;;
71435;SDS011;59251;51.326;12.370;2023-04-06T01:31:22;9.45;;;4.30;;
71435;SDS011;59251;51.326;12.370;2023-04-06T01:33:48;10.52;;;4.50;;
71435;SDS011;59251;51.326;12.370;2023-04-06T01:36:13;12.37;;;4.23;;
71435;SDS011;59251;51.326;12.370;2023-04-06T01:38:39;11.77;;;3.90;;
71435;SDS011;59251;51.326;12.370;2023-04-06T01:41:06;9.32;;;4.35;;
71435;SDS011;59251;51.326;12.370;2023-04-06T01:43:32;12.57;;;4.13;;
71435;SDS011;59251;51.326;12.370;2023-04-06T01:45:57;11.50;;;4.30;;
71435;SDS011;59251;51.326;12.370;2023-04-06T01:48:23;12.47;;;4.10;;
71435;SDS011;59251;51.326;12.370;2023-04-06T01:50:48;9.83;;;4.20;;
71435;SDS011;59251;51.326;12.370;2023-04-06T01:53:13;10.47;;;4.73;;
71435;SDS011;59251;51.326;12.370;2023-04-06T01:55:40;9.48;;;4.05;;
71435;SDS011;59251;51.326;12.370;2023-04-06T01:58:05;9.70;;;3.90;;
71435;SDS011;59251;51.326;12.370;2023-04-06T02:00:31;8.97;;;3.83;;
71435;SDS011;59251;51.326;12.370;2023-04-06T02:02:56;9.00;;;3.83;;
71435;SDS011;59251;51.326;12.370;2023-04-06T02:05:22;9.52;;;4.07;;
71435;SDS011;59251;51.326;12.370;2023-04-06T02:07:47;9.68;;;3.80;;
71435;SDS011;59251;51.326;12.370;2023-04-06T02:10:14;12.53;;;4.30;;
71435;SDS011;59251;51.326;12.370;2023-04-06T02:12:39;8.77;;;3.47;;
71435;SDS011;59251;51.326;12.370;2023-04-06T02:15:05;9.10;;;3.57;;
71435;SDS011;59251;51.326;12.370;2023-04-06T02:17:31;12.32;;;4.03;;
71435;SDS011;59251;51.326;12.370;2023-04-06T02:19:56;11.47;;;4.57;;
71435;SDS011;59251;51.326;12.370;2023-04-06T02:22:22;9.07;;;3.87;;
71435;SDS011;59251;51.326;12.370;2023-04-06T02:24:47;9.35;;;4.18;;
71435;SDS011;59251;51.326;12.370;2023-04-06T02:27:13;13.07;;;4.40;;
71435;SDS011;59251;51.326;12.370;2023-04-06T02:29:39;8.27;;;3.35;;
71435;SDS011;59251;51.326;12.370;2023-04-06T02:32:04;9.53;;;3.90;;
71435;SDS011;59251;51.326;12.370;2023-04-06T02:34:30;9.77;;;3.40;;
71435;SDS011;59251;51.326;12.370;2023-04-06T02:36:55;11.13;;;4.17;;
71435;SDS011;59251;51.326;12.370;2023-04-06T02:39:21;8.77;;;4.00;;
71435;SDS011;59251;51.326;12.370;2023-04-06T02:41:46;10.83;;;4.10;;
71435;SDS011;59251;51.326;12.370;2023-04-06T02:44:12;10.23;;;3.97;;
71435;SDS011;59251;51.326;12.370;2023-04-06T02:46:37;11.25;;;4.50;;
71435;SDS011;59251;51.326;12.370;2023-04-06T02:49:03;9.55;;;4.32;;
71435;SDS011;59251;51.326;12.370;2023-04-06T02:51:28;10.00;;;4.37;;
71435;SDS011;59251;51.326;12.370;2023-04-06T02:53:53;10.73;;;4.20;;
71435;SDS011;59251;51.326;12.370;2023-04-06T02:56:19;10.93;;;4.50;;
71435;SDS011;59251;51.326;12.370;2023-04-06T02:58:46;9.73;;;4.18;;
71435;SDS011;59251;51.326;12.370;2023-04-06T03:01:11;9.70;;;3.93;;
71435;SDS011;59251;51.326;12.370;2023-04-06T03:03:37;12.73;;;4.60;;
71435;SDS011;59251;51.326;12.370;2023-04-06T03:06:02;9.35;;;3.70;;
71435;SDS011;59251;51.326;12.370;2023-04-06T03:08:28;10.93;;;3.90;;
71435;SDS011;59251;51.326;12.370;2023-04-06T03:10:53;12.70;;;4.43;;
71435;SDS011;59251;51.326;12.370;2023-04-06T03:13:19;10.07;;;4.22;;
71435;SDS011;59251;51.326;12.370;2023-04-06T03:15:45;13.30;;;4.53;;
71435;SDS011;59251;51.326;12.370;2023-04-06T03:18:10;9.60;;;3.80;;
71435;SDS011;59251;51.326;12.370;2023-04-06T03:20:36;11.02;;;4.20;;
71435;SDS011;59251;51.326;12.370;2023-04-06T03:23:01;11.80;;;4.17;;
71435;SDS011;59251;51.326;12.370;2023-04-06T03:25:27;11.30;;;4.37;;
71435;SDS011;59251;51.326;12.370;2023-04-06T03:27:52;9.97;;;4.03;;
71435;SDS011;59251;51.326;12.370;2023-04-06T03:30:17;11.20;;;4.80;;
71435;SDS011;59251;51.326;12.370;2023-04-06T03:32:43;9.73;;;4.53;;
71435;SDS011;59251;51.326;12.370;2023-04-06T03:35:09;11.65;;;4.57;;
71435;SDS011;59251;51.326;12.370;2023-04-06T03:37:35;10.63;;;4.47;;
71435;SDS011;59251;51.326;12.370;2023-04-06T03:40:00;10.60;;;5.17;;
71435;SDS011;59251;51.326;12.370;2023-04-06T03:42:26;10.57;;;4.40;;
71435;SDS011;59251;51.326;12.370;2023-04-06T03:44:51;9.68;;;4.30;;
71435;SDS011;59251;51.326;12.370;2023-04-06T03:47:17;10.97;;;4.57;;
71435;SDS011;59251;51.326;12.370;2023-04-06T03:49:42;11.97;;;4.70;;
71435;SDS011;59251;51.326;12.370;2023-04-06T03:52:08;12.00;;;4.40;;
71435;SDS011;59251;51.326;12.370;2023-04-06T03:54:33;10.93;;;4.60;;
71435;SDS011;59251;51.326;12.370;2023-04-06T03:56:58;11.00;;;4.63;;
71435;SDS011;59251;51.326;12.370;2023-04-06T03:59:25;14.25;;;4.95;;
71435;SDS011;59251;51.326;12.370;2023-04-06T04:01:50;13.33;;;5.23;;
71435;SDS011;59251;51.326;12.370;2023-04-06T04:04:16;11.07;;;5.22;;
71435;SDS011;59251;51.326;12.370;2023-04-06T04:06:41;11.70;;;4.77;;
71435;SDS011;59251;51.326;12.370;2023-04-06T04:09:06;15.43;;;6.07;;
71435;SDS011;59251;51.326;12.370;2023-04-06T04:11:32;12.10;;;5.30;;
71435;SDS011;59251;51.326;12.370;2023-04-06T04:13:57;11.33;;;5.30;;
71435;SDS011;59251;51.326;12.370;2023-04-06T04:16:23;12.55;;;5.15;;
71435;SDS011;59251;51.326;12.370;2023-04-06T04:18:48;12.55;;;5.15;;
71435;SDS011;59251;51.326;12.370;2023-04-06T04:21:13;13.57;;;5.67;;
71435;SDS011;59251;51.326;12.370;2023-04-06T04:23:39;12.17;;;5.43;;
71435;SDS011;59251;51.326;12.370;2023-04-06T04:26:04;11.77;;;5.23;;
71435;SDS011;59251;51.326;12.370;2023-04-06T04:28:30;11.68;;;5.30;;
71435;SDS011;59251;51.326;12.370;2023-04-06T04:30:56;12.67;;;5.07;;
71435;SDS011;59251;51.326;12.370;2023-04-06T04:33:21;12.03;;;5.57;;
71435;SDS011;59251;51.326;12.370;2023-04-06T04:35:46;10.40;;;4.90;;
71435;SDS011;59251;51.326;12.370;2023-04-06T04:38:12;11.68;;;5.43;;
71435;SDS011;59251;51.326;12.370;2023-04-06T04:40:37;12.20;;;5.28;;
71435;SDS011;59251;51.326;12.370;2023-04-06T04:43:02;15.23;;;5.73;;
71435;SDS011;59251;51.326;12.370;2023-04-06T04:45:28;13.33;;;5.70;;
71435;SDS011;59251;51.326;12.370;2023-04-06T04:47:53;11.93;;;5.90;;
71435;SDS011;59251;51.326;12.370;2023-04-06T04:50:19;12.93;;;5.80;;
71435;SDS011;59251;51.326;12.370;2023-04-06T04:52:44;15.57;;;6.17;;
71435;SDS011;59251;51.326;12.370;2023-04-06T04:55:09;14.57;;;5.97;;
71435;SDS011;59251;51.326;12.370;2023-04-06T04:57:35;15.70;;;6.07;;
71435;SDS011;59251;51.326;12.370;2023-04-06T05:00:00;12.40;;;5.43;;
71435;SDS011;59251;51.326;12.370;2023-04-06T05:02:27;14.07;;;5.80;;
71435;SDS011;59251;51.326;12.370;2023-04-06T05:04:52;13.00;;;5.77;;
71435;SDS011;59251;51.326;12.370;2023-04-06T05:07:18;13.73;;;5.63;;
71435;SDS011;59251;51.326;12.370;2023-04-06T05:09:45;15.23;;;6.47;;
71435;SDS011;59251;51.326;12.370;2023-04-06T05:12:10;11.50;;;5.30;;
71435;SDS011;59251;51.326;12.370;2023-04-06T05:14:36;13.40;;;5.27;;
71435;SDS011;59251;51.326;12.370;2023-04-06T05:17:01;12.55;;;5.65;;
71435;SDS011;59251;51.326;12.370;2023-04-06T05:19:26;11.60;;;5.13;;
71435;SDS011;59251;51.326;12.370;2023-04-06T05:21:52;13.07;;;5.53;;
71435;SDS011;59251;51.326;12.370;2023-04-06T05:24:17;10.53;;;5.33;;
71435;SDS011;59251;51.326;12.370;2023-04-06T05:26:43;10.20;;;5.10;;
71435;SDS011;59251;51.326;12.370;2023-04-06T05:29:08;12.50;;;5.82;;
71435;SDS011;59251;51.326;12.370;2023-04-06T05:31:35;10.95;;;5.35;;
71435;SDS011;59251;51.326;12.370;2023-04-06T05:34:01;15.50;;;6.10;;
71435;SDS011;59251;51.326;12.370;2023-04-06T05:36:26;13.20;;;5.45;;
71435;SDS011;59251;51.326;12.370;2023-04-06T05:38:52;13.83;;;5.90;;
71435;SDS011;59251;51.326;12.370;2023-04-06T05:41:17;12.83;;;5.50;;
71435;SDS011;59251;51.326;12.370;2023-04-06T05:43:43;13.18;;;5.75;;
71435;SDS011;59251;51.326;12.370;2023-04-06T05:46:09;14.50;;;6.07;;
71435;SDS011;59251;51.326;12.370;2023-04-06T05:48:35;16.15;;;5.43;;
71435;SDS011;59251;51.326;12.370;2023-04-06T05:51:00;13.10;;;5.57;;
71435;SDS011;59251;51.326;12.370;2023-04-06T05:53:27;12.45;;;6.30;;
71435;SDS011;59251;51.326;12.370;2023-04-06T05:55:53;14.63;;;6.03;;
71435;SDS011;59251;51.326;12.370;2023-04-06T05:58:19;13.00;;;5.67;;
71435;SDS011;59251;51.326;12.370;2023-04-06T06:00:44;11.67;;;5.67;;
71435;SDS011;59251;51.326;12.370;2023-04-06T06:03:10;10.00;;;5.20;;
71435;SDS011;59251;51.326;12.370;2023-04-06T06:05:37;15.07;;;5.38;;
71435;SDS011;59251;51.326;12.370;2023-04-06T06:08:02;14.63;;;5.43;;
71435;SDS011;59251;51.326;12.370;2023-04-06T06:10:27;15.02;;;5.38;;
71435;SDS011;59251;51.326;12.370;2023-04-06T06:12:53;11.10;;;5.13;;
71435;SDS011;59251;51.326;12.370;2023-04-06T06:15:18;11.37;;;5.50;;
71435;SDS011;59251;51.326;12.370;2023-04-06T06:17:44;10.80;;;4.63;;
71435;SDS011;59251;51.326;12.370;2023-04-06T06:20:09;13.80;;;5.88;;
71435;SDS011;59251;51.326;12.370;2023-04-06T06:22:35;10.98;;;4.97;;
71435;SDS011;59251;51.326;12.370;2023-04-06T06:25:01;11.77;;;5.10;;
71435;SDS011;59251;51.326;12.370;2023-04-06T06:27:27;11.87;;;4.50;;
71435;SDS011;59251;51.326;12.370;2023-04-06T06:29:52;11.20;;;4.57;;
71435;SDS011;59251;51.326;12.370;2023-04-06T06:32:18;11.87;;;5.40;;
71435;SDS011;59251;51.326;12.370;2023-04-06T06:34:43;11.27;;;4.73;;
71435;SDS011;59251;51.326;12.370;2023-04-06T06:37:09;13.37;;;4.80;;
71435;SDS011;59251;51.326;12.370;2023-04-06T06:39:34;11.07;;;4.83;;
71435;SDS011;59251;51.326;12.370;2023-04-06T06:42:00;12.32;;;5.07;;
71435;SDS011;59251;51.326;12.370;2023-04-06T06:44:26;12.83;;;4.83;;
71435;SDS011;59251;51.326;12.370;2023-04-06T06:46:52;13.35;;;4.63;;
71435;SDS011;59251;51.326;12.370;2023-04-06T06:49:17;11.13;;;4.93;;
71435;SDS011;59251;51.326;12.370;2023-04-06T06:51:43;16.55;;;4.65;;
71435;SDS011;59251;51.326;12.370;2023-04-06T06:54:09;10.50;;;4.22;;
71435;SDS011;59251;51.326;12.370;2023-04-06T06:56:34;9.43;;;4.33;;
71435;SDS011;59251;51.326;12.370;2023-04-06T06:59:02;13.38;;;4.07;;
71435;SDS011;59251;51.326;12.370;2023-04-06T07:01:27;10.27;;;4.20;;
71435;SDS011;59251;51.326;12.370;2023-04-06T07:03:52;10.13;;;4.10;;
71435;SDS011;59251;51.326;12.370;2023-04-06T07:06:18;10.53;;;4.20;;
71435;SDS011;59251;51.326;12.370;2023-04-06T07:08:43;9.50;;;4.03;;
71435;SDS011;59251;51.326;12.370;2023-04-06T07:11:09;11.85;;;4.18;;
71435;SDS011;59251;51.326;12.370;2023-04-06T07:13:34;10.13;;;4.43;;
71435;SDS011;59251;51.326;12.370;2023-04-06T07:15:59;12.83;;;4.30;;
71435;SDS011;59251;51.326;12.370;2023-04-06T07:18:25;10.63;;;4.53;;
71435;SDS011;59251;51.326;12.370;2023-04-06T07:20:50;11.70;;;4.00;;
71435;SDS011;59251;51.326;12.370;2023-04-06T07:23:16;10.57;;;4.45;;
71435;SDS011;59251;51.326;12.370;2023-04-06T07:25:41;10.13;;;4.30;;
71435;SDS011;59251;51.326;12.370;2023-04-06T07:28:07;10.47;;;4.13;;
71435;SDS011;59251;51.326;12.370;2023-04-06T07:30:32;8.03;;;3.63;;
71435;SDS011;59251;51.326;12.370;2023-04-06T07:32:57;9.07;;;3.80;;
71435;SDS011;59251;51.326;12.370;2023-04-06T07:35:26;10.02;;;4.25;;
71435;SDS011;59251;51.326;12.370;2023-04-06T07:37:55;9.45;;;3.58;;
71435;SDS011;59251;51.326;12.370;2023-04-06T07:40:21;10.00;;;3.80;;
71435;SDS011;59251;51.326;12.370;2023-04-06T07:42:47;10.98;;;3.70;;
71435;SDS011;59251;51.326;12.370;2023-04-06T07:45:12;11.13;;;4.53;;
71435;SDS011;59251;51.326;12.370;2023-04-06T07:47:38;9.60;;;4.60;;
71435;SDS011;59251;51.326;12.370;2023-04-06T07:50:04;9.00;;;4.05;;
71435;SDS011;59251;51.326;12.370;2023-04-06T07:52:30;9.27;;;3.67;;
71435;SDS011;59251;51.326;12.370;2023-04-06T07:54:57;9.07;;;4.10;;
71435;SDS011;59251;51.326;12.370;2023-04-06T07:57:23;9.02;;;3.95;;
71435;SDS011;59251;51.326;12.370;2023-04-06T07:59:48;10.57;;;4.33;;
71435;SDS011;59251;51.326;12.370;2023-04-06T08:02:14;8.60;;;3.80;;
71435;SDS011;59251;51.326;12.370;2023-04-06T08:04:39;11.20;;;4.38;;
71435;SDS011;59251;51.326;12.370;2023-04-06T08:07:05;24.67;;;4.53;;
71435;SDS011;59251;51.326;12.370;2023-04-06T08:09:30;9.40;;;4.13;;
71435;SDS011;59251;51.326;12.370;2023-04-06T08:11:56;9.32;;;4.30;;
71435;SDS011;59251;51.326;12.370;2023-04-06T08:14:21;10.37;;;4.10;;
71435;SDS011;59251;51.326;12.370;2023-04-06T08:16:46;9.90;;;3.97;;
71435;SDS011;59251;51.326;12.370;2023-04-06T08:19:12;9.17;;;3.77;;
71435;SDS011;59251;51.326;12.370;2023-04-06T08:21:37;9.23;;;3.90;;
71435;SDS011;59251;51.326;12.370;2023-04-06T08:24:04;10.32;;;3.70;;
71435;SDS011;59251;51.326;12.370;2023-04-06T08:26:30;10.82;;;4.00;;
71435;SDS011;59251;51.326;12.370;2023-04-06T08:28:56;9.57;;;3.70;;
71435;SDS011;59251;51.326;12.370;2023-04-06T08:31:21;8.37;;;3.90;;
71435;SDS011;59251;51.326;12.370;2023-04-06T08:33:47;8.70;;;4.10;;
71435;SDS011;59251;51.326;12.370;2023-04-06T08:36:13;9.10;;;4.00;;
71435;SDS011;59251;51.326;12.370;2023-04-06T08:38:40;9.57;;;4.17;;
71435;SDS011;59251;51.326;12.370;2023-04-06T08:41:09;11.27;;;4.10;;
71435;SDS011;59251;51.326;12.370;2023-04-06T08:43:37;10.15;;;4.03;;
71435;SDS011;59251;51.326;12.370;2023-04-06T08:46:08;9.23;;;3.75;;
71435;SDS011;59251;51.326;12.370;2023-04-06T08:48:35;13.48;;;4.45;;
71435;SDS011;59251;51.326;12.370;2023-04-06T08:51:01;11.47;;;4.03;;
71435;SDS011;59251;51.326;12.370;2023-04-06T08:53:27;10.57;;;4.05;;
71435;SDS011;59251;51.326;12.370;2023-04-06T08:55:53;10.73;;;4.10;;
71435;SDS011;59251;51.326;12.370;2023-04-06T08:58:19;8.90;;;4.05;;
71435;SDS011;59251;51.326;12.370;2023-04-06T09:00:46;9.40;;;4.20;;
71435;SDS011;59251;51.326;12.370;2023-04-06T09:03:12;11.48;;;4.10;;
71435;SDS011;59251;51.326;12.370;2023-04-06T09:05:38;9.73;;;3.53;;
71435;SDS011;59251;51.326;12.370;2023-04-06T09:08:04;9.55;;;3.80;;
71435;SDS011;59251;51.326;12.370;2023-04-06T09:10:30;11.38;;;3.67;;
71435;SDS011;59251;51.326;12.370;2023-04-06T09:13:04;9.83;;;4.03;;
71435;SDS011;59251;51.326;12.370;2023-04-06T09:15:30;10.50;;;3.75;;
71435;SDS011;59251;51.326;12.370;2023-04-06T09:17:55;8.90;;;4.00;;
71435;SDS011;59251;51.326;12.370;2023-04-06T09:20:24;10.68;;;3.58;;
71435;SDS011;59251;51.326;12.370;2023-04-06T09:22:56;8.85;;;4.00;;
71435;SDS011;59251;51.326;12.370;2023-04-06T09:25:22;9.52;;;4.00;;
71435;SDS011;59251;51.326;12.370;2023-04-06T09:27:57;10.93;;;4.55;;
71435;SDS011;59251;51.326;12.370;2023-04-06T09:30:27;12.05;;;4.57;;
71435;SDS011;59251;51.326;12.370;2023-04-06T09:32:53;11.70;;;4.37;;
71435;SDS011;59251;51.326;12.370;2023-04-06T09:35:20;9.63;;;3.70;;
71435;SDS011;59251;51.326;12.370;2023-04-06T09:37:47;11.43;;;4.43;;
71435;SDS011;59251;51.326;12.370;2023-04-06T09:40:13;9.35;;;3.75;;
71435;SDS011;59251;51.326;12.370;2023-04-06T09:42:45;9.88;;;3.92;;
71435;SDS011;59251;51.326;12.370;2023-04-06T09:45:16;10.10;;;3.87;;
71435;SDS011;59251;51.326;12.370;2023-04-06T09:47:43;11.27;;;3.60;;
71435;SDS011;59251;51.326;12.370;2023-04-06T09:50:10;8.73;;;3.30;;
71435;SDS011;59251;51.326;12.370;2023-04-06T09:52:38;10.70;;;3.65;;
71435;SDS011;59251;51.326;12.370;2023-04-06T09:55:07;10.27;;;3.33;;
71435;SDS011;59251;51.326;12.370;2023-04-06T10:00:08;8.68;;;3.08;;
71435;SDS011;59251;51.326;12.370;2023-04-06T10:07:59;8.27;;;3.10;;
71435;SDS011;59251;51.326;12.370;2023-04-06T10:10:30;9.80;;;3.53;;
71435;SDS011;59251;51.326;12.370;2023-04-06T10:12:56;8.97;;;3.33;;
71435;SDS011;59251;51.326;12.370;2023-04-06T10:15:22;7.95;;;2.67;;
71435;SDS011;59251;51.326;12.370;2023-04-06T10:17:47;9.50;;;3.13;;
71435;SDS011;59251;51.326;12.370;2023-04-06T10:20:15;11.65;;;4.50;;
71435;SDS011;59251;51.326;12.370;2023-04-06T10:23:08;12.65;;;5.45;;
71435;SDS011;59251;51.326;12.370;2023-04-06T10:25:51;7.47;;;3.20;;
71435;SDS011;59251;51.326;12.370;2023-04-06T10:28:20;9.73;;;3.90;;
71435;SDS011;59251;51.326;12.370;2023-04-06T10:30:45;10.02;;;4.10;;
71435;SDS011;59251;51.326;12.370;2023-04-06T10:33:18;10.13;;;4.27;;
71435;SDS011;59251;51.326;12.370;2023-04-06T10:35:45;8.88;;;3.55;;
71435;SDS011;59251;51.326;12.370;2023-04-06T10:38:11;10.23;;;3.67;;
71435;SDS011;59251;51.326;12.370;2023-04-06T10:40:39;9.15;;;3.35;;
71435;SDS011;59251;51.326;12.370;2023-04-06T10:43:09;9.07;;;3.47;;
71435;SDS011;59251;51.326;12.370;2023-04-06T10:45:59;9.20;;;3.60;;
71435;SDS011;59251;51.326;12.370;2023-04-06T10:48:35;11.45;;;4.20;;
71435;SDS011;59251;51.326;12.370;2023-04-06T10:51:06;9.98;;;3.45;;
71435;SDS011;59251;51.326;12.370;2023-04-06T10:53:34;9.68;;;3.80;;
71435;SDS011;59251;51.326;12.370;2023-04-06T10:55:59;7.40;;;3.33;;
71435;SDS011;59251;51.326;12.370;2023-04-06T10:58:26;9.13;;;3.78;;
71435;SDS011;59251;51.326;12.370;2023-04-06T11:00:52;8.98;;;3.50;;
71435;SDS011;59251;51.326;12.370;2023-04-06T11:03:19;11.52;;;4.50;;
71435;SDS011;59251;51.326;12.370;2023-04-06T11:05:45;8.63;;;3.55;;
71435;SDS011;59251;51.326;12.370;2023-04-06T11:11:10;10.38;;;3.13;;
71435;SDS011;59251;51.326;12.370;2023-04-06T11:16:19;9.65;;;3.78;;
71435;SDS011;59251;51.326;12.370;2023-04-06T11:21:18;9.27;;;4.45;;
71435;SDS011;59251;51.326;12.370;2023-04-06T11:23:45;9.50;;;3.75;;
71435;SDS011;59251;51.326;12.370;2023-04-06T11:26:13;12.95;;;4.35;;
71435;SDS011;59251;51.326;12.370;2023-04-06T11:28:40;8.80;;;3.20;;
71435;SDS011;59251;51.326;12.370;2023-04-06T11:31:10;8.25;;;3.78;;
71435;SDS011;59251;51.326;12.370;2023-04-06T11:33:36;9.05;;;3.60;;
71435;SDS011;59251;51.326;12.370;2023-04-06T11:36:03;8.27;;;3.45;;
71435;SDS011;59251;51.326;12.370;2023-04-06T11:38:30;7.88;;;3.67;;
71435;SDS011;59251;51.326;12.370;2023-04-06T11:40:55;9.73;;;3.73;;
71435;SDS011;59251;51.326;12.370;2023-04-06T11:43:30;7.67;;;3.13;;
71435;SDS011;59251;51.326;12.370;2023-04-06T11:45:59;7.75;;;3.20;;
71435;SDS011;59251;51.326;12.370;2023-04-06T11:48:29;8.35;;;3.10;;
71435;SDS011;59251;51.326;12.370;2023-04-06T11:50:59;8.43;;;3.70;;
71435;SDS011;59251;51.326;12.370;2023-04-06T11:53:26;8.10;;;3.20;;
71435;SDS011;59251;51.326;12.370;2023-04-06T11:55:55;10.63;;;3.33;;
71435;SDS011;59251;51.326;12.370;2023-04-06T11:58:21;12.30;;;3.50;;
71435;SDS011;59251;51.326;12.370;2023-04-06T12:00:47;9.70;;;3.70;;
71435;SDS011;59251;51.326;12.370;2023-04-06T12:03:12;7.87;;;3.10;;
71435;SDS011;59251;51.326;12.370;2023-04-06T12:05:38;9.83;;;3.43;;
71435;SDS011;59251;51.326;12.370;2023-04-06T12:08:05;9.07;;;3.40;;
71435;SDS011;59251;51.326;12.370;2023-04-06T12:10:30;8.63;;;3.75;;
71435;SDS011;59251;51.326;12.370;2023-04-06T12:12:56;7.20;;;2.80;;
71435;SDS011;59251;51.326;12.370;2023-04-06T12:15:21;10.17;;;3.37;;
71435;SDS011;59251;51.326;12.370;2023-04-06T12:17:47;8.93;;;3.37;;
71435;SDS011;59251;51.326;12.370;2023-04-06T12:20:12;9.30;;;3.55;;
71435;SDS011;59251;51.326;12.370;2023-04-06T12:22:38;8.95;;;3.30;;
71435;SDS011;59251;51.326;12.370;2023-04-06T12:25:04;8.70;;;3.60;;
71435;SDS011;59251;51.326;12.370;2023-04-06T12:27:31;8.05;;;3.50;;
71435;SDS011;59251;51.326;12.370;2023-04-06T12:29:57;10.30;;;3.60;;
71435;SDS011;59251;51.326;12.370;2023-04-06T12:32:22;11.70;;;4.37;;
71435;SDS011;59251;51.326;12.370;2023-04-06T12:34:48;8.80;;;3.10;;
71435;SDS011;59251;51.326;12.370;2023-04-06T12:37:13;8.43;;;3.80;;
71435;SDS011;59251;51.326;12.370;2023-04-06T12:39:38;7.83;;;3.50;;
71435;SDS011;59251;51.326;12.370;2023-04-06T12:42:04;9.07;;;3.80;;
71435;SDS011;59251;51.326;12.370;2023-04-06T12:44:30;10.30;;;5.13;;
71435;SDS011;59251;51.326;12.370;2023-04-06T12:46:55;10.30;;;3.83;;
71435;SDS011;59251;51.326;12.370;2023-04-06T12:49:21;9.43;;;3.85;;
71435;SDS011;59251;51.326;12.370;2023-04-06T12:51:46;9.60;;;4.63;;
71435;SDS011;59251;51.326;12.370;2023-04-06T12:54:12;7.78;;;3.97;;
71435;SDS011;59251;51.326;12.370;2023-04-06T12:56:37;7.70;;;3.80;;
71435;SDS011;59251;51.326;12.370;2023-04-06T12:59:03;9.33;;;3.97;;
71435;SDS011;59251;51.326;12.370;2023-04-06T13:01:30;8.13;;;3.93;;
71435;SDS011;59251;51.326;12.370;2023-04-06T13:03:56;9.38;;;3.85;;
71435;SDS011;59251;51.326;12.370;2023-04-06T13:06:22;8.50;;;3.65;;
71435;SDS011;59251;51.326;12.370;2023-04-06T13:08:52;9.10;;;3.80;;
71435;SDS011;59251;51.326;12.370;2023-04-06T13:11:17;9.25;;;3.58;;
71435;SDS011;59251;51.326;12.370;2023-04-06T13:13:45;9.27;;;4.00;;
71435;SDS011;59251;51.326;12.370;2023-04-06T13:16:10;8.27;;;4.00;;
71435;SDS011;59251;51.326;12.370;2023-04-06T13:18:36;8.57;;;3.57;;
71435;SDS011;59251;51.326;12.370;2023-04-06T13:21:03;7.93;;;3.55;;
71435;SDS011;59251;51.326;12.370;2023-04-06T13:23:32;8.32;;;3.67;;
71435;SDS011;59251;51.326;12.370;2023-04-06T13:26:01;8.80;;;4.40;;
71435;SDS011;59251;51.326;12.370;2023-04-06T13:28:28;8.45;;;4.00;;
71435;SDS011;59251;51.326;12.370;2023-04-06T13:30:54;10.57;;;4.17;;
71435;SDS011;59251;51.326;12.370;2023-04-06T13:33:20;8.57;;;3.88;;
71435;SDS011;59251;51.326;12.370;2023-04-06T13:35:46;8.30;;;4.13;;
71435;SDS011;59251;51.326;12.370;2023-04-06T13:38:11;8.82;;;3.50;;
71435;SDS011;59251;51.326;12.370;2023-04-06T13:40:41;8.40;;;3.90;;
71435;SDS011;59251;51.326;12.370;2023-04-06T13:43:07;8.50;;;4.10;;
71435;SDS011;59251;51.326;12.370;2023-04-06T13:45:32;8.60;;;4.60;;
71435;SDS011;59251;51.326;12.370;2023-04-06T13:47:58;9.05;;;4.32;;
71435;SDS011;59251;51.326;12.370;2023-04-06T13:50:27;8.23;;;4.50;;
71435;SDS011;59251;51.326;12.370;2023-04-06T13:52:53;10.68;;;4.43;;
71435;SDS011;59251;51.326;12.370;2023-04-06T13:55:18;9.60;;;3.90;;
71435;SDS011;59251;51.326;12.370;2023-04-06T13:57:44;9.02;;;4.20;;
71435;SDS011;59251;51.326;12.370;2023-04-06T14:00:09;11.57;;;4.50;;
71435;SDS011;59251;51.326;12.370;2023-04-06T14:02:37;14.25;;;5.72;;
71435;SDS011;59251;51.326;12.370;2023-04-06T14:05:03;8.60;;;4.23;;
71435;SDS011;59251;51.326;12.370;2023-04-06T14:07:28;9.80;;;4.47;;
71435;SDS011;59251;51.326;12.370;2023-04-06T14:09:54;8.23;;;3.90;;
71435;SDS011;59251;51.326;12.370;2023-04-06T14:12:19;8.33;;;4.00;;
71435;SDS011;59251;51.326;12.370;2023-04-06T14:14:45;8.00;;;3.90;;
71435;SDS011;59251;51.326;12.370;2023-04-06T14:17:11;12.53;;;4.53;;
71435;SDS011;59251;51.326;12.370;2023-04-06T14:19:36;11.27;;;4.80;;
71435;SDS011;59251;51.326;12.370;2023-04-06T14:22:02;8.77;;;4.05;;
71435;SDS011;59251;51.326;12.370;2023-04-06T14:24:29;8.35;;;4.28;;
71435;SDS011;59251;51.326;12.370;2023-04-06T14:26:54;9.47;;;4.30;;
71435;SDS011;59251;51.326;12.370;2023-04-06T14:29:20;9.25;;;4.35;;
71435;SDS011;59251;51.326;12.370;2023-04-06T14:31:47;9.80;;;4.53;;
71435;SDS011;59251;51.326;12.370;2023-04-06T14:34:12;8.98;;;4.30;;
71435;SDS011;59251;51.326;12.370;2023-04-06T14:36:38;9.27;;;4.33;;
71435;SDS011;59251;51.326;12.370;2023-04-06T14:39:03;9.07;;;4.20;;